Time;durP1;ratioP1;P1;durP2;ratioP2;P2;SDS_P1;SDS_P2;PMS_P1;PMS_P2;Temp;Humidity;BMP_temperature;BMP_pressure;BME280_temperature;BME280_humidity;BME280_pressure;Samples;Min_cycle;Max_cycle;Signal;HPM_P1;HPM_P2
2024/03/03 00:01:02;;;;;;;54.00;29.10;;;;;;;;;;5009326;28;20030;-68
2024/03/03 00:03:28;;;;;;;52.53;26.90;;;;;;;;;;5007486;28;20117;-68
2024/03/03 00:05:54;;;;;;;49.83;25.88;;;;;;;;;;5009533;28;20109;-68
2024/03/03 00:08:23;;;;;;;54.90;29.02;;;;;;;;;;5009317;28;20519;-68
2024/03/03 00:10:50;;;;;;;51.28;28.27;;;;;;;;;;5018813;28;20068;-68
2024/03/03 00:13:16;;;;;;;47.70;26.38;;;;;;;;;;5019994;28;20041;-68
2024/03/03 00:15:42;;;;;;;55.88;29.73;;;;;;;;;;5020303;28;20022;-68
2024/03/03 00:18:08;;;;;;;50.47;27.95;;;;;;;;;;5021675;28;20022;-68
2024/03/03 00:20:34;;;;;;;52.35;28.75;;;;;;;;;;5014054;28;20022;-68
2024/03/03 00:23:00;;;;;;;55.67;29.15;;;;;;;;;;5013184;28;20036;-69
2024/03/03 00:25:26;;;;;;;55.00;28.98;;;;;;;;;;5020559;28;20128;-68
2024/03/03 00:27:52;;;;;;;51.50;27.98;;;;;;;;;;5027011;28;20049;-68
2024/03/03 00:30:18;;;;;;;47.60;26.80;;;;;;;;;;5020851;28;20459;-68
2024/03/03 00:32:44;;;;;;;51.15;28.13;;;;;;;;;;5022932;28;20025;-68
2024/03/03 00:35:11;;;;;;;63.05;32.55;;;6.80;99.90;;;;;;5020712;28;20014;-68
2024/03/03 00:37:37;;;;;;;61.17;31.90;;;6.80;99.90;;;;;;5021295;28;20160;-70
2024/03/03 00:40:03;;;;;;;57.67;29.73;;;;;;;;;;5022519;28;20037;-69
2024/03/03 00:42:29;;;;;;;56.33;29.65;;;6.70;99.90;;;;;;5019348;28;20033;-70
2024/03/03 00:44:54;;;;;;;55.97;27.98;;;6.70;99.90;;;;;;5021539;28;20396;-68
2024/03/03 00:47:20;;;;;;;53.83;28.70;;;6.70;99.90;;;;;;5021672;28;20028;-70
2024/03/03 00:49:46;;;;;;;63.85;33.65;;;6.60;99.90;;;;;;5019602;28;20068;-70
2024/03/03 00:52:11;;;;;;;60.00;30.90;;;6.60;99.90;;;;;;5024483;28;20032;-67
2024/03/03 00:54:37;;;;;;;60.38;31.23;;;6.70;99.90;;;;;;5018905;28;20359;-69
2024/03/03 00:57:03;;;;;;;52.22;29.13;;;6.70;99.90;;;;;;5022208;28;20045;-68
2024/03/03 00:59:29;;;;;;;55.58;30.20;;;6.70;99.90;;;;;;5019720;28;20390;-68
2024/03/03 01:01:55;;;;;;;60.53;31.85;;;6.60;99.90;;;;;;5020091;28;20113;-68
2024/03/03 01:04:20;;;;;;;65.25;32.33;;;6.70;99.90;;;;;;5021425;28;20030;-70
2024/03/03 01:06:46;;;;;;;58.33;32.25;;;6.70;99.90;;;;;;5022166;28;20088;-69
2024/03/03 01:09:11;;;;;;;56.08;28.98;;;6.70;99.90;;;;;;5019929;28;20025;-68
2024/03/03 01:11:38;;;;;;;67.43;33.03;;;6.70;99.90;;;;;;5020264;28;20058;-69
2024/03/03 01:14:04;;;;;;;58.00;31.73;;;6.70;99.90;;;;;;5020646;28;20033;-68
2024/03/03 01:16:29;;;;;;;63.13;33.35;;;6.70;99.90;;;;;;5020962;28;20274;-68
2024/03/03 01:18:55;;;;;;;60.40;30.88;;;6.70;99.90;;;;;;5020784;28;20462;-70
2024/03/03 01:21:20;;;;;;;58.95;32.35;;;6.70;99.90;;;;;;5018931;28;20037;-69
2024/03/03 01:23:46;;;;;;;61.45;31.42;;;6.60;99.90;;;;;;5019965;28;20022;-69
2024/03/03 01:26:12;;;;;;;63.85;31.90;;;6.70;99.90;;;;;;5019207;28;20029;-68
2024/03/03 01:28:37;;;;;;;64.15;31.42;;;6.70;99.90;;;;;;5022341;28;20014;-69
2024/03/03 01:31:03;;;;;;;59.97;32.20;;;6.60;99.90;;;;;;5020476;28;20037;-69
2024/03/03 01:33:28;;;;;;;64.35;32.55;;;6.60;99.90;;;;;;5020065;28;20165;-70
2024/03/03 01:35:54;;;;;;;59.45;30.73;;;6.60;99.90;;;;;;5019582;28;20372;-68
2024/03/03 01:38:20;;;;;;;59.05;31.17;;;6.60;99.90;;;;;;5010380;28;20029;-69
2024/03/03 01:40:52;;;;;;;62.60;31.85;;;6.50;99.90;;;;;;5021157;28;20451;-69
2024/03/03 01:43:18;;;;;;;63.30;32.95;;;6.50;99.90;;;;;;5020820;28;20279;-70
2024/03/03 01:45:44;;;;;;;64.85;32.75;;;6.40;99.90;;;;;;5018677;28;20113;-70
2024/03/03 01:48:10;;;;;;;63.65;33.40;;;6.40;99.90;;;;;;5020394;28;20072;-67
2024/03/03 01:50:38;;;;;;;63.53;32.92;;;6.30;99.90;;;;;;5011070;28;20036;-69
2024/03/03 01:53:03;;;;;;;57.08;30.42;;;6.30;99.90;;;;;;5010730;28;20046;-70
2024/03/03 01:55:30;;;;;;;54.53;30.35;;;6.20;99.90;;;;;;5008296;28;20262;-70
2024/03/03 01:58:00;;;;;;;55.58;29.85;;;6.20;99.90;;;;;;5011334;28;20514;-68
2024/03/03 02:00:27;;;;;;;63.03;32.55;;;6.10;99.90;;;;;;5010488;28;20049;-68
2024/03/03 02:02:53;;;;;;;60.75;32.03;;;6.00;99.90;;;;;;5010678;28;20092;-69
2024/03/03 02:05:18;;;;;;;56.63;30.48;;;5.90;99.90;;;;;;5010291;28;20410;-69
2024/03/03 02:07:45;;;;;;;62.72;31.27;;;5.90;99.90;;;;;;5011502;28;20022;-69
2024/03/03 02:10:11;;;;;;;62.22;32.38;;;5.80;99.90;;;;;;5009709;28;20029;-68
2024/03/03 02:12:36;;;;;;;63.60;32.63;;;5.70;99.90;;;;;;5009208;28;20382;-70
2024/03/03 02:15:02;;;;;;;68.80;33.38;;;5.70;99.90;;;;;;5010133;28;20028;-68
2024/03/03 02:17:29;;;;;;;72.55;34.97;;;5.60;99.90;;;;;;5010541;28;20104;-68
2024/03/03 02:19:54;;;;;;;62.58;32.13;;;5.60;99.90;;;;;;5010469;28;20084;-68
2024/03/03 02:22:20;;;;;;;62.05;32.42;;;5.50;99.90;;;;;;5007306;28;20033;-68
2024/03/03 02:24:45;;;;;;;67.32;33.45;;;5.50;99.90;;;;;;5010305;28;20386;-69
2024/03/03 02:27:13;;;;;;;69.43;33.78;;;;;;;;;;5010547;28;20024;-68
2024/03/03 02:29:39;;;;;;;66.38;34.28;;;;;;;;;;4991480;28;20093;-69
2024/03/03 02:32:09;;;;;;;81.20;36.38;;;;;;;;;;5009952;28;20416;-70
2024/03/03 02:34:37;;;;;;;75.93;36.05;;;;;;;;;;5009786;28;20081;-70
2024/03/03 02:37:17;;;;;;;74.10;36.53;;;;;;;;;;5009722;28;20629;-69
2024/03/03 02:39:47;;;;;;;72.90;36.92;;;;;;;;;;5010155;28;20072;-69
2024/03/03 02:42:13;;;;;;;66.05;33.75;;;;;;;;;;5009991;28;20109;-68
2024/03/03 02:44:39;;;;;;;69.13;34.15;;;;;;;;;;5010433;28;20093;-69
2024/03/03 02:47:05;;;;;;;77.15;37.03;;;;;;;;;;5010631;28;20022;-69
2024/03/03 02:49:31;;;;;;;79.15;39.20;;;;;;;;;;4991674;28;20508;-69
2024/03/03 02:51:57;;;;;;;82.95;38.55;;;;;;;;;;5010378;28;20060;-69
2024/03/03 02:54:23;;;;;;;82.40;39.25;;;;;;;;;;5009080;28;20073;-68
2024/03/03 02:56:49;;;;;;;75.93;36.92;;;;;;;;;;5008232;28;20359;-70
2024/03/03 02:59:15;;;;;;;75.65;37.50;;;;;;;;;;5009741;28;20032;-67
2024/03/03 03:01:41;;;;;;;88.13;39.97;;;;;;;;;;5010336;28;20017;-70
2024/03/03 03:04:08;;;;;;;78.00;37.70;;;;;;;;;;5010318;28;20349;-68
2024/03/03 03:06:34;;;;;;;83.75;37.75;;;;;;;;;;5009363;28;20033;-68
2024/03/03 03:09:00;;;;;;;80.80;38.25;;;;;;;;;;5010477;28;20026;-69
2024/03/03 03:11:26;;;;;;;74.93;36.80;;;;;;;;;;5009309;28;20025;-68
2024/03/03 03:13:53;;;;;;;79.70;38.05;;;;;;;;;;5010988;28;20076;-69
2024/03/03 03:16:19;;;;;;;78.00;37.28;;;;;;;;;;5009201;28;20022;-68
2024/03/03 03:18:45;;;;;;;76.03;37.78;;;;;;;;;;5010185;28;20030;-68
2024/03/03 03:21:11;;;;;;;77.05;37.30;;;;;;;;;;5006294;28;20121;-68
2024/03/03 03:23:37;;;;;;;77.47;36.88;;;;;;;;;;5010705;28;20486;-69
2024/03/03 03:26:03;;;;;;;74.80;36.70;;;;;;;;;;5009747;28;20076;-69
2024/03/03 03:28:29;;;;;;;81.78;40.05;;;;;;;;;;5010196;28;20029;-69
2024/03/03 03:30:55;;;;;;;91.50;41.28;;;;;;;;;;5008496;28;20030;-69
2024/03/03 03:33:21;;;;;;;90.15;42.05;;;;;;;;;;5009501;28;20049;-69
2024/03/03 03:35:47;;;;;;;87.20;41.58;;;;;;;;;;5009934;28;20101;-69
2024/03/03 03:38:13;;;;;;;81.50;39.05;;;;;;;;;;5010212;28;20021;-69
2024/03/03 03:40:39;;;;;;;77.30;37.10;;;;;;;;;;5015892;28;20031;-69
2024/03/03 03:43:05;;;;;;;87.57;38.85;;;;;;;;;;5016293;28;20040;-69
2024/03/03 03:45:32;;;;;;;84.85;38.38;;;;;;;;;;5019126;28;20102;-69
2024/03/03 03:47:58;;;;;;;83.55;37.80;;;;;;;;;;5022397;28;20239;-69
2024/03/03 03:50:24;;;;;;;86.20;39.22;;;;;;;;;;5018265;28;20025;-69
2024/03/03 03:52:50;;;;;;;93.57;43.78;;;;;;;;;;5014349;28;20077;-69
2024/03/03 03:55:16;;;;;;;91.47;42.10;;;;;;;;;;5011652;28;20022;-69
2024/03/03 03:57:42;;;;;;;85.60;39.25;;;;;;;;;;5014621;28;20476;-69
2024/03/03 04:00:10;;;;;;;92.22;41.05;;;;;;;;;;5014151;28;20030;-68
2024/03/03 04:02:36;;;;;;;82.72;40.13;;;;;;;;;;5014441;28;20060;-69
2024/03/03 04:05:04;;;;;;;83.93;40.10;;;;;;;;;;5013169;28;20041;-70
2024/03/03 04:07:32;;;;;;;89.38;41.03;;;;;;;;;;5013338;28;20071;-69
2024/03/03 04:09:58;;;;;;;93.25;42.20;;;;;;;;;;5014315;28;20010;-69
2024/03/03 04:12:24;;;;;;;83.32;40.53;;;;;;;;;;5012890;28;20029;-69
2024/03/03 04:14:50;;;;;;;91.97;40.72;;;;;;;;;;5011757;28;20029;-69
2024/03/03 04:17:16;;;;;;;95.60;42.50;;;;;;;;;;5012516;28;20037;-69
2024/03/03 04:19:42;;;;;;;90.07;41.17;;;;;;;;;;5013294;28;20105;-69
2024/03/03 04:22:08;;;;;;;97.38;43.33;;;;;;;;;;5012266;28;20168;-69
2024/03/03 04:24:34;;;;;;;88.07;39.92;;;;;;;;;;5012771;28;20026;-69
2024/03/03 04:27:01;;;;;;;101.15;45.65;;;;;;;;;;5012984;28;20049;-70
2024/03/03 04:29:27;;;;;;;97.50;42.45;;;;;;;;;;5012230;28;20137;-69
2024/03/03 04:31:53;;;;;;;98.35;43.60;;;;;;;;;;5010512;28;20021;-69
2024/03/03 04:34:19;;;;;;;100.68;44.53;;;;;;;;;;5011646;28;20020;-69
2024/03/03 04:36:45;;;;;;;107.45;43.53;;;;;;;;;;5012488;28;20383;-68
2024/03/03 04:39:12;;;;;;;101.65;43.92;;;;;;;;;;5011222;28;20051;-68
2024/03/03 04:41:38;;;;;;;99.32;42.97;;;;;;;;;;5012287;28;20100;-70
2024/03/03 04:44:04;;;;;;;92.90;41.55;;;;;;;;;;5012611;28;20025;-69
2024/03/03 04:46:30;;;;;;;88.60;40.33;;;;;;;;;;5011434;28;20255;-69
2024/03/03 04:48:56;;;;;;;84.72;39.40;;;;;;;;;;5012844;28;20073;-69
2024/03/03 04:51:22;;;;;;;98.68;42.80;;;;;;;;;;5011622;28;20029;-69
2024/03/03 04:53:48;;;;;;;90.68;41.15;;;;;;;;;;5012595;28;20048;-69
2024/03/03 04:56:17;;;;;;;97.95;43.17;;;;;;;;;;5008550;28;20363;-68
2024/03/03 04:58:43;;;;;;;100.65;44.03;;;;;;;;;;5012377;28;20018;-69
2024/03/03 05:01:10;;;;;;;94.63;41.50;;;;;;;;;;5006662;28;20017;-68
2024/03/03 05:03:36;;;;;;;90.03;40.33;;;;;;;;;;5011135;28;20037;-69
2024/03/03 05:06:03;;;;;;;91.32;40.67;;;;;;;;;;5011584;28;20021;-68
2024/03/03 05:08:29;;;;;;;98.65;42.35;;;;;;;;;;5011097;28;20096;-68
2024/03/03 05:10:54;;;;;;;94.43;41.78;;;;;;;;;;5011209;28;20033;-69
2024/03/03 05:13:20;;;;;;;85.70;39.45;;;;;;;;;;5011695;28;20037;-69
2024/03/03 05:15:46;;;;;;;99.32;43.47;;;;;;;;;;5012339;28;20470;-69
2024/03/03 05:18:12;;;;;;;94.40;44.35;;;;;;;;;;5011644;28;20049;-69
2024/03/03 05:20:38;;;;;;;95.80;41.17;;;;;;;;;;5009852;28;20029;-69
2024/03/03 05:23:04;;;;;;;97.43;41.35;;;;;;;;;;5011246;28;20033;-69
2024/03/03 05:25:30;;;;;;;105.65;43.50;;;;;;;;;;5011028;28;20018;-68
2024/03/03 05:27:56;;;;;;;89.93;39.35;;;;;;;;;;5011470;28;20026;-68
2024/03/03 05:30:22;;;;;;;91.85;42.78;;;;;;;;;;5009087;28;20510;-69
2024/03/03 05:32:48;;;;;;;97.32;41.33;;;;;;;;;;5011794;28;20034;-68
2024/03/03 05:35:14;;;;;;;83.93;38.22;;;;;;;;;;5010797;28;20021;-68
2024/03/03 05:37:40;;;;;;;88.55;39.72;;;;;;;;;;5011090;28;20022;-69
2024/03/03 05:40:07;;;;;;;87.38;38.78;;;;;;;;;;5011309;28;20478;-68
2024/03/03 05:42:33;;;;;;;90.97;42.22;;;;;;;;;;5010644;28;20023;-68
2024/03/03 05:44:59;;;;;;;97.78;42.33;;;;;;;;;;5010953;28;20029;-69
2024/03/03 05:47:25;;;;;;;89.80;38.47;;;;;;;;;;5010840;28;20088;-68
2024/03/03 05:49:51;;;;;;;91.13;39.95;;;;;;;;;;5010742;28;20025;-69
2024/03/03 05:52:17;;;;;;;84.45;38.10;;;;;;;;;;5010980;28;20026;-69
2024/03/03 05:54:43;;;;;;;83.85;38.20;;;;;;;;;;5008796;28;20038;-68
2024/03/03 05:57:11;;;;;;;85.35;37.53;;;;;;;;;;5011621;28;20355;-71
2024/03/03 05:59:37;;;;;;;87.07;38.72;;;;;;;;;;5010089;28;20010;-68
2024/03/03 06:02:03;;;;;;;85.45;38.30;;;;;;;;;;5010522;28;20506;-72
2024/03/03 06:04:29;;;;;;;92.93;40.30;;;;;;;;;;4992895;28;20044;-72
2024/03/03 06:06:55;;;;;;;101.40;41.38;;;;;;;;;;5004837;28;20468;-72
2024/03/03 06:09:21;;;;;;;94.90;40.13;;;;;;;;;;5007138;28;20026;-73
2024/03/03 06:11:47;;;;;;;94.45;40.63;;;;;;;;;;5009660;28;20374;-73
2024/03/03 06:14:14;;;;;;;92.53;38.70;;;;;;;;;;5007045;28;20105;-75
2024/03/03 06:16:40;;;;;;;95.38;41.17;;;;;;;;;;5009473;28;20034;-74
2024/03/03 06:19:06;;;;;;;90.70;40.17;;;;;;;;;;5009452;28;20097;-72
2024/03/03 06:21:33;;;;;;;84.60;38.97;;;;;;;;;;5008844;28;20050;-74
2024/03/03 06:23:59;;;;;;;93.28;39.88;;;;;;;;;;5009965;28;20105;-74
2024/03/03 06:26:28;;;;;;;93.00;40.28;;;;;;;;;;5008980;28;20149;-71
2024/03/03 06:28:54;;;;;;;92.22;38.63;;;;;;;;;;5009560;28;20028;-74
2024/03/03 06:31:20;;;;;;;96.50;40.40;;;;;;;;;;5009416;28;20044;-72
2024/03/03 06:33:46;;;;;;;91.07;38.17;;;;;;;;;;4991375;28;20054;-73
2024/03/03 06:36:17;;;;;;;93.85;38.03;;;;;;;;;;5009364;28;20014;-74
2024/03/03 06:38:43;;;;;;;93.47;40.78;;;;;;;;;;5009587;28;20467;-75
2024/03/03 06:41:09;;;;;;;85.72;38.58;;;;;;;;;;5005271;28;20018;-77
2024/03/03 06:43:35;;;;;;;91.93;39.85;;;;;;;;;;4991715;28;20025;-75
2024/03/03 06:46:01;;;;;;;76.57;36.78;;;;;;;;;;5009473;28;20032;-72
2024/03/03 06:48:30;;;;;;;80.88;37.95;;;;;;;;;;5008497;28;20399;-75
2024/03/03 06:50:56;;;;;;;79.25;36.67;;;;;;;;;;5008848;28;20018;-75
2024/03/03 06:53:22;;;;;;;79.40;38.17;;;;;;;;;;5008981;28;20041;-75
2024/03/03 06:55:48;;;;;;;75.70;35.50;;;;;;;;;;5008969;28;20068;-73
2024/03/03 06:58:14;;;;;;;70.53;34.83;;;;;;;;;;5009082;28;20026;-72
2024/03/03 07:00:40;;;;;;;72.95;35.08;;;;;;;;;;5008230;28;20405;-72
2024/03/03 07:05:35;;;;;;;71.43;35.13;;;;;;;;;;4997610;28;20030;-69
2024/03/03 07:08:02;;;;;;;66.90;36.10;;;;;;;;;;5008977;28;20482;-67
2024/03/03 07:10:30;;;;;;;70.82;35.97;;;;;;;;;;4990263;28;20718;-71
2024/03/03 07:12:56;;;;;;;67.70;34.97;;;;;;;;;;5008767;28;20049;-70
2024/03/03 07:15:22;;;;;;;60.63;33.15;;;;;;;;;;5007877;28;20018;-69
2024/03/03 07:17:48;;;;;;;64.55;32.95;;;;;;;;;;5008026;28;20032;-69
2024/03/03 07:20:14;;;;;;;61.20;32.97;;;;;;;;;;5010504;28;20064;-70
2024/03/03 07:22:40;;;;;;;59.88;32.65;;;;;;;;;;5012249;28;20034;-71
2024/03/03 07:25:07;;;;;;;60.90;32.55;;;;;;;;;;4994302;28;20029;-69
2024/03/03 07:27:33;;;;;;;60.05;31.08;;;;;;;;;;5012335;28;20193;-70
2024/03/03 07:29:59;;;;;;;59.10;31.20;;;;;;;;;;5012061;28;20105;-71
2024/03/03 07:32:28;;;;;;;58.63;32.00;;;;;;;;;;5009632;28;20025;-71
2024/03/03 07:34:55;;;;;;;55.00;30.85;;;;;;;;;;5010290;28;20383;-72
2024/03/03 07:37:21;;;;;;;57.03;30.98;;;;;;;;;;5012015;28;20030;-70
2024/03/03 07:39:47;;;;;;;55.05;31.50;;;;;;;;;;4994680;28;20045;-70
2024/03/03 07:42:14;;;;;;;57.55;30.10;;;;;;;;;;5011108;28;20366;-69
2024/03/03 07:44:40;;;;;;;55.35;30.38;;;;;;;;;;5004489;28;20479;-70
2024/03/03 07:47:06;;;;;;;51.53;29.27;;;;;;;;;;5011194;28;20026;-72
2024/03/03 07:49:32;;;;;;;53.90;30.13;;;;;;;;;;4994600;28;20093;-69
2024/03/03 07:51:58;;;;;;;54.47;29.58;;;;;;;;;;5008460;28;20022;-69
2024/03/03 07:54:24;;;;;;;49.78;28.60;;;;;;;;;;5005968;28;20054;-70
2024/03/03 07:56:50;;;;;;;52.95;28.58;;;;;;;;;;5004874;28;20014;-72
2024/03/03 07:59:16;;;;;;;51.13;30.00;;;;;;;;;;5007456;28;20474;-70
2024/03/03 08:01:42;;;;;;;52.78;30.00;;;;;;;;;;5007070;28;20467;-70
2024/03/03 08:04:12;;;;;;;50.47;28.92;;;;;;;;;;5008074;28;20061;-72
2024/03/03 08:06:38;;;;;;;;;;;;;;;;;;5011928;28;20041;-70
2024/03/03 08:09:04;;;;;;;48.00;27.52;;;;;;;;;;5012031;28;19902;-70
2024/03/03 08:11:32;;;;;;;45.67;25.50;;;;;;;;;;5010476;28;20137;-71
2024/03/03 08:13:58;;;;;;;47.92;28.20;;;;;;;;;;5012315;28;20029;-70
2024/03/03 08:16:24;;;;;;;47.22;27.52;;;;;;;;;;5008855;28;20026;-68
2024/03/03 08:18:50;;;;;;;49.72;29.25;;;;;;;;;;5011336;28;20034;-70
2024/03/03 08:21:16;;;;;;;45.40;26.52;;;;;;;;;;5008584;28;20075;-70
2024/03/03 08:23:43;;;;;;;47.53;26.40;;;;;;;;;;5006887;28;20036;-70
2024/03/03 08:26:11;;;;;;;42.85;26.88;;;;;;;;;;5010894;28;20125;-76
2024/03/03 08:28:37;;;;;;;46.38;27.90;;;;;;;;;;4999456;28;20049;-74
2024/03/03 08:31:03;;;;;;;45.88;26.67;;;;;;;;;;5008328;28;20030;-75
2024/03/03 08:33:29;;;;;;;43.72;26.58;;;;;;;;;;5009231;28;20077;-72
2024/03/03 08:35:55;;;;;;;43.33;26.08;;;;;;;;;;5011313;28;20102;-72
2024/03/03 08:38:21;;;;;;;45.05;26.95;;;;;;;;;;5003121;28;20479;-71
2024/03/03 08:40:47;;;;;;;44.08;27.30;;;;;;;;;;4992417;28;20026;-69
2024/03/03 08:43:13;;;;;;;43.42;26.08;;;;;;;;;;5011531;28;20045;-74
2024/03/03 08:45:39;;;;;;;43.83;26.35;;;;;;;;;;4992936;28;20030;-71
2024/03/03 08:48:05;;;;;;;47.10;26.70;;;;;;;;;;5010386;28;20090;-70
2024/03/03 08:50:31;;;;;;;37.95;24.60;;;;;;;;;;5004800;28;20464;-70
2024/03/03 08:52:57;;;;;;;41.72;25.23;;;;;;;;;;5010630;28;20045;-70
2024/03/03 08:55:23;;;;;;;40.95;25.05;;;;;;;;;;5010413;28;20018;-68
2024/03/03 08:57:50;;;;;;;45.75;26.58;;;;;;;;;;5010849;28;20021;-69
2024/03/03 09:00:16;;;;;;;45.35;25.80;;;;;;;;;;5009244;28;20379;-68
2024/03/03 09:02:43;;;;;;;39.13;25.25;;;;;;;;;;5009603;28;20022;-68
2024/03/03 09:05:10;;;;;;;45.53;26.20;;;;;;;;;;5009970;28;20028;-68
2024/03/03 09:07:36;;;;;;;43.72;26.95;;;;;;;;;;5010262;28;20475;-70
2024/03/03 09:10:04;;;;;;;39.80;24.70;;;;;;;;;;5010155;28;20033;-71
2024/03/03 09:12:30;;;;;;;44.85;26.65;;;;;;;;;;5010250;28;20018;-73
2024/03/03 09:14:56;;;;;;;39.60;25.50;;;;;;;;;;5010402;28;20084;-75
2024/03/03 09:17:22;;;;;;;42.03;24.92;;;;;;;;;;5009340;28;20026;-72
2024/03/03 09:19:48;;;;;;;36.40;24.13;;;;;;;;;;5012482;28;20022;-69
2024/03/03 09:22:14;;;;;;;39.38;24.92;;;;;;;;;;5009807;28;20033;-70
2024/03/03 09:24:46;;;;;;;43.33;24.92;;;;;;;;;;5010324;28;20054;-74
2024/03/03 09:27:12;;;;;;;43.25;25.83;;;;;;;;;;5008507;28;20014;-72
2024/03/03 09:29:38;;;;;;;41.55;25.83;;;11.00;99.90;;;;;;5010871;28;20093;-72
2024/03/03 09:32:04;;;;;;;37.83;23.45;;;11.00;99.90;;;;;;5010252;28;20097;-75
2024/03/03 09:34:30;;;;;;;39.60;24.90;;;11.00;99.90;;;;;;5011185;28;20483;-72
2024/03/03 09:36:56;;;;;;;38.80;24.05;;;11.10;99.90;;;;;;5012141;28;20029;-75
2024/03/03 09:39:21;;;;;;;41.25;25.15;;;11.10;99.90;;;;;;5010700;28;20030;-74
2024/03/03 09:41:50;;;;;;;36.67;24.52;;;11.20;99.90;;;;;;5009707;28;20029;-77
2024/03/03 09:44:17;;;;;;;37.17;23.55;;;11.30;99.90;;;;;;5012059;28;20064;-77
2024/03/03 09:46:44;;;;;;;34.63;22.42;;;11.50;99.90;;;;;;5023912;28;20018;-71
2024/03/03 09:49:17;;;;;;;39.58;24.75;;;11.70;99.90;;;;;;5027926;28;20022;-69
2024/03/03 09:51:45;;;;;;;37.08;24.02;;;12.00;99.90;;;;;;5028342;28;20040;-70
2024/03/03 09:54:14;;;;;;;38.92;23.83;;;;;;;;;;5027845;28;20061;-71
2024/03/03 09:56:46;;;;;;;35.88;22.23;;;12.20;99.90;;;;;;5023220;28;20100;-72
2024/03/03 09:59:14;;;;;;;35.25;23.08;;;12.20;99.90;;;;;;5015113;28;20041;-71
2024/03/03 10:01:46;;;;;;;37.25;22.17;;;12.30;99.90;;;;;;5014716;28;20034;-72
2024/03/03 10:04:14;;;;;;;35.40;22.20;;;12.40;99.90;;;;;;5013131;28;20470;-72
2024/03/03 10:06:42;;;;;;;35.00;22.13;;;12.50;99.90;;;;;;5011494;28;20080;-69
2024/03/03 10:09:14;;;;;;;38.42;24.63;;;12.40;99.90;;;;;;5007306;28;20032;-69
2024/03/03 10:11:41;;;;;;;34.08;22.05;;;12.50;99.90;;;;;;5010827;28;20097;-70
2024/03/03 10:14:11;;;;;;;34.58;21.98;;;12.60;99.90;;;;;;5010226;28;20052;-70
2024/03/03 10:16:38;;;;;;;35.00;22.10;;;12.70;99.90;;;;;;5008773;28;20068;-70
2024/03/03 10:19:05;;;;;;;30.77;19.88;;;;;;;;;;5008738;28;20045;-70
2024/03/03 10:21:38;;;;;;;32.33;20.80;;;12.90;99.90;;;;;;5008533;28;20887;-68
2024/03/03 10:24:23;;;;;;;33.88;20.02;;;13.00;99.90;;;;;;5010040;28;20022;-74
2024/03/03 10:26:56;;;;;;;28.40;19.67;;;13.00;99.90;;;;;;5003452;28;20109;-72
2024/03/03 10:29:26;;;;;;;29.02;18.75;;;13.10;99.90;;;;;;5008338;28;20018;-73
2024/03/03 10:31:56;;;;;;;27.15;18.40;;;13.10;99.90;;;;;;5009578;28;20030;-72
2024/03/03 10:34:22;;;;;;;28.25;18.58;;;13.10;99.90;;;;;;5008639;28;20034;-73
2024/03/03 10:36:59;;;;;;;28.67;17.30;;;13.10;99.90;;;;;;5009302;28;20356;-75
2024/03/03 10:39:24;;;;;;;28.77;18.05;;;13.10;99.90;;;;;;5008759;28;20341;-75
2024/03/03 10:41:50;;;;;;;30.08;18.90;;;13.10;99.90;;;;;;5009630;28;20029;-75
2024/03/03 10:44:15;;;;;;;26.83;17.65;;;13.10;99.90;;;;;;5007826;28;20076;-73
2024/03/03 10:46:42;;;;;;;24.63;15.32;;;13.10;99.90;;;;;;5009524;28;20025;-73
2024/03/03 10:49:12;;;;;;;22.52;15.65;;;13.10;99.90;;;;;;5004825;28;20036;-75
2024/03/03 10:51:38;;;;;;;24.45;16.67;;;13.10;99.90;;;;;;5008556;28;20545;-71
2024/03/03 10:54:04;;;;;;;24.30;16.67;;;13.30;99.90;;;;;;5008157;28;20042;-71
2024/03/03 10:56:32;;;;;;;24.55;16.48;;;13.40;99.90;;;;;;5009163;28;20037;-72
2024/03/03 10:58:59;;;;;;;21.65;15.68;;;13.50;99.90;;;;;;4992314;28;20026;-74
2024/03/03 11:01:25;;;;;;;26.38;16.80;;;13.60;99.90;;;;;;5008146;28;20034;-73
2024/03/03 11:03:54;;;;;;;22.15;15.43;;;13.70;99.90;;;;;;5009467;28;20033;-70
2024/03/03 11:06:22;;;;;;;24.73;16.13;;;13.80;99.90;;;;;;5007439;28;20030;-68
2024/03/03 11:08:52;;;;;;;25.20;15.63;;;13.90;99.90;;;;;;5009063;28;20018;-69
2024/03/03 11:11:22;;;;;;;23.33;14.07;;;13.90;99.90;;;;;;5007732;28;20092;-70
2024/03/03 11:13:54;;;;;;;22.75;15.52;;;13.90;99.90;;;;;;5000962;28;20065;-70
2024/03/03 11:16:21;;;;;;;23.50;14.80;;;14.10;99.90;;;;;;5006282;28;20045;-69
2024/03/03 11:18:49;;;;;;;22.08;15.73;;;14.20;99.90;;;;;;5006349;28;20038;-70
2024/03/03 11:21:20;;;;;;;20.70;14.32;;;14.30;99.90;;;;;;5007263;28;20024;-67
2024/03/03 11:24:02;;;;;;;20.65;14.23;;;14.50;99.90;;;;;;5007413;28;20026;-70
2024/03/03 11:26:38;;;;;;;23.90;15.98;;;14.60;99.90;;;;;;5007876;28;20105;-69
2024/03/03 11:29:05;;;;;;;22.23;14.73;;;14.60;99.90;;;;;;5008264;28;20029;-70
2024/03/03 11:31:30;;;;;;;21.75;14.48;;;14.60;99.90;;;;;;5007555;28;20032;-71
2024/03/03 11:33:57;;;;;;;21.20;13.73;;;14.70;99.90;;;;;;5008347;28;20493;-71
2024/03/03 11:36:24;;;;;;;20.85;14.80;;;14.60;99.90;;;;;;5007764;28;20029;-72
2024/03/03 11:38:50;;;;;;;19.15;14.20;;;14.50;99.90;;;;;;5008207;28;20132;-72
2024/03/03 11:41:20;;;;;;;19.33;12.77;;;14.50;99.90;;;;;;5007646;28;20471;-72
2024/03/03 11:43:46;;;;;;;20.35;13.82;;;14.60;99.90;;;;;;5008250;28;20029;-72
2024/03/03 11:46:53;;;;;;;19.77;13.80;;;14.60;99.90;;;;;;5005697;28;20099;-72
2024/03/03 11:49:23;;;;;;;17.55;13.05;;;14.80;99.90;;;;;;5005095;28;20022;-73
2024/03/03 11:51:49;;;;;;;17.17;12.15;;;14.90;99.90;;;;;;5000123;28;20021;-73
2024/03/03 11:54:35;;;;;;;18.45;12.82;;;14.90;99.90;;;;;;5008137;28;20046;-71
2024/03/03 11:57:01;;;;;;;16.15;11.82;;;14.90;99.90;;;;;;5007684;28;20097;-73
2024/03/03 11:59:36;;;;;;;18.30;12.50;;;15.10;99.90;;;;;;5007261;28;20550;-73
2024/03/03 12:02:04;;;;;;;16.85;11.93;;;15.10;99.90;;;;;;4989581;28;20109;-73
2024/03/03 12:04:30;;;;;;;18.08;12.75;;;15.30;99.90;;;;;;5005829;28;20033;-72
2024/03/03 12:06:56;;;;;;;13.95;10.23;;;15.30;99.90;;;;;;5011714;28;20471;-72
2024/03/03 12:09:22;;;;;;;16.08;12.00;;;15.40;99.90;;;;;;5011476;28;20052;-70
2024/03/03 12:11:53;;;;;;;16.05;11.88;;;15.60;99.90;;;;;;5009588;28;20053;-71
2024/03/03 12:14:19;;;;;;;15.95;12.45;;;15.90;99.90;;;;;;5010022;28;20041;-71
2024/03/03 12:16:44;;;;;;;15.20;10.68;;;16.40;99.90;;;;;;5012125;28;20030;-72
2024/03/03 12:19:10;;;;;;;12.23;9.77;;;16.90;99.90;;;;;;5011857;28;20097;-73
2024/03/03 12:21:42;;;;;;;12.95;10.07;;;;;;;;;;4993165;28;20109;-79
2024/03/03 12:24:08;;;;;;;13.20;10.32;;;18.40;99.90;;;;;;5013288;28;20101;-74
2024/03/03 12:26:34;;;;;;;13.13;10.10;;;18.80;99.90;;;;;;5011135;28;20118;-74
2024/03/03 12:29:00;;;;;;;13.50;10.50;;;;;;;;;;5011315;28;20108;-76
2024/03/03 12:31:30;;;;;;;14.02;11.32;;;;;;;;;;5010575;28;20029;-76
2024/03/03 12:33:57;;;;;;;13.38;10.70;;;;;;;;;;5012076;28;20018;-69
2024/03/03 12:36:23;;;;;;;14.18;11.45;;;;;;;;;;5004985;28;20092;-70
2024/03/03 12:38:51;;;;;;;12.50;10.60;;;;;;;;;;5011482;28;20037;-70
2024/03/03 12:41:17;;;;;;;13.70;10.77;;;;;;;;;;5003794;28;20076;-70
2024/03/03 12:43:43;;;;;;;11.93;9.75;;;;;;;;;;5011572;28;20026;-75
2024/03/03 12:46:09;;;;;;;14.68;9.55;;;;;;;;;;5004673;28;20068;-74
2024/03/03 12:48:35;;;;;;;12.60;10.10;;;;;;;;;;5010640;28;20100;-73
2024/03/03 12:51:02;;;;;;;10.57;9.05;;;22.30;99.90;;;;;;5011100;28;20097;-75
2024/03/03 12:53:28;;;;;;;11.68;9.98;;;22.10;99.90;;;;;;5010724;28;20050;-76
2024/03/03 12:55:54;;;;;;;11.93;10.57;;;;;;;;;;5011141;28;20108;-72
2024/03/03 12:58:20;;;;;;;12.85;10.65;;;22.70;99.30;;;;;;5010242;28;20101;-73
2024/03/03 13:00:53;;;;;;;11.45;8.20;;;;;;;;;;5010452;28;20116;-73
2024/03/03 13:03:19;;;;;;;12.43;9.23;;;;;;;;;;5011008;28;20117;-73
2024/03/03 13:05:48;;;;;;;8.40;7.53;;;;;;;;;;5010865;28;20021;-77
2024/03/03 13:08:14;;;;;;;9.30;7.28;;;23.10;99.90;;;;;;5010270;28;20363;-74
2024/03/03 13:10:41;;;;;;;8.93;7.03;;;23.30;99.90;;;;;;5011116;28;20018;-75
2024/03/03 13:13:08;;;;;;;10.30;7.55;;;23.10;99.60;;;;;;5010308;28;20172;-72
2024/03/03 13:15:33;;;;;;;7.63;5.90;;;22.60;99.90;;;;;;5009927;28;20018;-74
2024/03/03 13:18:15;;;;;;;7.25;6.10;;;22.00;99.80;;;;;;5006883;28;20045;-74
2024/03/03 13:20:41;;;;;;;8.68;6.07;;;21.50;99.90;;;;;;5010009;28;20021;-75
2024/03/03 13:23:13;;;;;;;5.35;4.45;;;21.20;99.90;;;;;;5010834;28;20029;-74
2024/03/03 13:25:42;;;;;;;5.55;4.00;;;21.20;99.90;;;;;;5011160;28;20080;-75
2024/03/03 13:28:16;;;;;;;4.57;3.97;;;21.40;98.70;;;;;;5010290;28;20383;-72
2024/03/03 13:30:58;;;;;;;8.43;3.88;;;21.60;98.70;;;;;;5010483;28;20088;-72
2024/03/03 13:33:24;;;;;;;4.82;3.55;;;21.90;98.70;;;;;;5010012;28;20052;-72
2024/03/03 13:35:50;;;;;;;3.35;2.80;;;22.10;98.20;;;;;;5010476;28;20455;-71